sensor_id;sensor_type;location;lat;lon;timestamp;P1;P2;P0
42410;PMS5003;28056;51.112;0.984;2023-08-24T00:00:44;6;6;
42410;PMS5003;28056;51.112;0.984;2023-08-24T00:04:52;10;9;
42410;PMS5003;28056;51.112;0.984;2023-08-24T00:07:19;9;7;
42410;PMS5003;28056;51.112;0.984;2023-08-24T00:09:47;8;7;
42410;PMS5003;28056;51.112;0.984;2023-08-24T00:12:14;9;7;
42410;PMS5003;28056;51.112;0.984;2023-08-24T00:14:42;7;7;
42410;PMS5003;28056;51.112;0.984;2023-08-24T00:17:09;5;5;
42410;PMS5003;28056;51.112;0.984;2023-08-24T00:19:37;8;7;
42410;PMS5003;28056;51.112;0.984;2023-08-24T00:22:04;6;6;
42410;PMS5003;28056;51.112;0.984;2023-08-24T00:24:32;8;6;
42410;PMS5003;28056;51.112;0.984;2023-08-24T00:26:59;10;8;
42410;PMS5003;28056;51.112;0.984;2023-08-24T00:29:27;7;7;
42410;PMS5003;28056;51.112;0.984;2023-08-24T00:31:54;7;7;
42410;PMS5003;28056;51.112;0.984;2023-08-24T00:34:22;8;8;
42410;PMS5003;28056;51.112;0.984;2023-08-24T00:36:49;7;7;
42410;PMS5003;28056;51.112;0.984;2023-08-24T00:39:17;11;9;
42410;PMS5003;28056;51.112;0.984;2023-08-24T00:41:45;10;9;
42410;PMS5003;28056;51.112;0.984;2023-08-24T00:44:12;9;9;
42410;PMS5003;28056;51.112;0.984;2023-08-24T00:46:40;7;7;
42410;PMS5003;28056;51.112;0.984;2023-08-24T00:49:07;8;8;
42410;PMS5003;28056;51.112;0.984;2023-08-24T00:51:35;9;7;
42410;PMS5003;28056;51.112;0.984;2023-08-24T00:54:02;9;8;
42410;PMS5003;28056;51.112;0.984;2023-08-24T00:56:31;8;6;
42410;PMS5003;28056;51.112;0.984;2023-08-24T00:58:58;6;6;
42410;PMS5003;28056;51.112;0.984;2023-08-24T01:01:26;9;7;
42410;PMS5003;28056;51.112;0.984;2023-08-24T01:03:53;7;7;
42410;PMS5003;28056;51.112;0.984;2023-08-24T01:06:21;10;8;
42410;PMS5003;28056;51.112;0.984;2023-08-24T01:08:49;9;8;
42410;PMS5003;28056;51.112;0.984;2023-08-24T01:11:19;11;11;
42410;PMS5003;28056;51.112;0.984;2023-08-24T01:13:56;16;15;
42410;PMS5003;28056;51.112;0.984;2023-08-24T01:16:30;17;14;
42410;PMS5003;28056;51.112;0.984;2023-08-24T01:19:00;21;15;
42410;PMS5003;28056;51.112;0.984;2023-08-24T01:21:31;14;14;
42410;PMS5003;28056;51.112;0.984;2023-08-24T01:24:01;15;14;
42410;PMS5003;28056;51.112;0.984;2023-08-24T01:26:35;12;10;
42410;PMS5003;28056;51.112;0.984;2023-08-24T01:29:04;8;8;
42410;PMS5003;28056;51.112;0.984;2023-08-24T01:31:32;8;8;
42410;PMS5003;28056;51.112;0.984;2023-08-24T01:34:00;13;11;
42410;PMS5003;28056;51.112;0.984;2023-08-24T01:36:27;8;8;
42410;PMS5003;28056;51.112;0.984;2023-08-24T01:38:58;10;8;
42410;PMS5003;28056;51.112;0.984;2023-08-24T01:41:35;10;10;
42410;PMS5003;28056;51.112;0.984;2023-08-24T01:44:03;9;9;
42410;PMS5003;28056;51.112;0.984;2023-08-24T01:46:31;9;9;
42410;PMS5003;28056;51.112;0.984;2023-08-24T01:49:00;11;10;
42410;PMS5003;28056;51.112;0.984;2023-08-24T01:51:29;12;10;
42410;PMS5003;28056;51.112;0.984;2023-08-24T01:53:58;11;11;
42410;PMS5003;28056;51.112;0.984;2023-08-24T01:56:26;11;11;
42410;PMS5003;28056;51.112;0.984;2023-08-24T01:58:53;10;10;
42410;PMS5003;28056;51.112;0.984;2023-08-24T02:01:21;10;10;
42410;PMS5003;28056;51.112;0.984;2023-08-24T02:03:49;14;14;
42410;PMS5003;28056;51.112;0.984;2023-08-24T02:06:16;13;13;
42410;PMS5003;28056;51.112;0.984;2023-08-24T02:08:43;12;12;
42410;PMS5003;28056;51.112;0.984;2023-08-24T02:11:11;14;13;
42410;PMS5003;28056;51.112;0.984;2023-08-24T02:13:38;13;12;
42410;PMS5003;28056;51.112;0.984;2023-08-24T02:16:07;17;12;
42410;PMS5003;28056;51.112;0.984;2023-08-24T02:18:35;9;9;
42410;PMS5003;28056;51.112;0.984;2023-08-24T02:21:06;13;9;
42410;PMS5003;28056;51.112;0.984;2023-08-24T02:23:35;11;10;
42410;PMS5003;28056;51.112;0.984;2023-08-24T02:26:02;12;12;
42410;PMS5003;28056;51.112;0.984;2023-08-24T02:28:30;12;11;
42410;PMS5003;28056;51.112;0.984;2023-08-24T02:31:00;15;13;
42410;PMS5003;28056;51.112;0.984;2023-08-24T02:33:28;15;14;
42410;PMS5003;28056;51.112;0.984;2023-08-24T02:35:56;19;14;
42410;PMS5003;28056;51.112;0.984;2023-08-24T02:38:23;19;15;
42410;PMS5003;28056;51.112;0.984;2023-08-24T02:40:59;16;13;
42410;PMS5003;28056;51.112;0.984;2023-08-24T02:43:27;13;13;
42410;PMS5003;28056;51.112;0.984;2023-08-24T02:45:59;16;12;
42410;PMS5003;28056;51.112;0.984;2023-08-24T02:48:27;13;12;
42410;PMS5003;28056;51.112;0.984;2023-08-24T02:50:56;16;13;
42410;PMS5003;28056;51.112;0.984;2023-08-24T02:53:24;14;13;
42410;PMS5003;28056;51.112;0.984;2023-08-24T02:55:51;16;13;
42410;PMS5003;28056;51.112;0.984;2023-08-24T02:58:19;15;12;
42410;PMS5003;28056;51.112;0.984;2023-08-24T03:00:46;14;14;
42410;PMS5003;28056;51.112;0.984;2023-08-24T03:03:14;15;13;
42410;PMS5003;28056;51.112;0.984;2023-08-24T03:05:51;18;15;
42410;PMS5003;28056;51.112;0.984;2023-08-24T03:08:19;16;13;
42410;PMS5003;28056;51.112;0.984;2023-08-24T03:10:47;16;15;
42410;PMS5003;28056;51.112;0.984;2023-08-24T03:13:14;21;19;
42410;PMS5003;28056;51.112;0.984;2023-08-24T03:15:42;13;11;
42410;PMS5003;28056;51.112;0.984;2023-08-24T03:18:10;12;12;
42410;PMS5003;28056;51.112;0.984;2023-08-24T03:20:39;14;13;
42410;PMS5003;28056;51.112;0.984;2023-08-24T03:23:06;13;13;
42410;PMS5003;28056;51.112;0.984;2023-08-24T03:25:35;11;11;
42410;PMS5003;28056;51.112;0.984;2023-08-24T03:28:04;14;11;
42410;PMS5003;28056;51.112;0.984;2023-08-24T03:30:32;12;12;
42410;PMS5003;28056;51.112;0.984;2023-08-24T03:33:00;15;15;
42410;PMS5003;28056;51.112;0.984;2023-08-24T03:35:28;22;20;
42410;PMS5003;28056;51.112;0.984;2023-08-24T03:37:55;14;13;
42410;PMS5003;28056;51.112;0.984;2023-08-24T03:40:22;12;12;
42410;PMS5003;28056;51.112;0.984;2023-08-24T03:42:50;12;12;
42410;PMS5003;28056;51.112;0.984;2023-08-24T03:45:18;14;13;
42410;PMS5003;28056;51.112;0.984;2023-08-24T03:47:45;12;12;
42410;PMS5003;28056;51.112;0.984;2023-08-24T03:50:12;15;13;
42410;PMS5003;28056;51.112;0.984;2023-08-24T03:52:40;20;18;
42410;PMS5003;28056;51.112;0.984;2023-08-24T03:55:07;17;15;
42410;PMS5003;28056;51.112;0.984;2023-08-24T03:57:35;14;13;
42410;PMS5003;28056;51.112;0.984;2023-08-24T04:00:03;15;15;
42410;PMS5003;28056;51.112;0.984;2023-08-24T04:02:31;14;11;
42410;PMS5003;28056;51.112;0.984;2023-08-24T04:04:59;17;15;
42410;PMS5003;28056;51.112;0.984;2023-08-24T04:07:26;14;12;
42410;PMS5003;28056;51.112;0.984;2023-08-24T04:09:53;12;12;
42410;PMS5003;28056;51.112;0.984;2023-08-24T04:12:21;16;15;
42410;PMS5003;28056;51.112;0.984;2023-08-24T04:14:48;17;12;
42410;PMS5003;28056;51.112;0.984;2023-08-24T04:17:16;14;12;
42410;PMS5003;28056;51.112;0.984;2023-08-24T04:19:48;15;14;
42410;PMS5003;28056;51.112;0.984;2023-08-24T04:22:16;12;12;
42410;PMS5003;28056;51.112;0.984;2023-08-24T04:24:43;15;13;
42410;PMS5003;28056;51.112;0.984;2023-08-24T04:27:11;14;13;
42410;PMS5003;28056;51.112;0.984;2023-08-24T04:29:38;10;10;
42410;PMS5003;28056;51.112;0.984;2023-08-24T04:32:06;12;11;
42410;PMS5003;28056;51.112;0.984;2023-08-24T04:34:33;8;8;
42410;PMS5003;28056;51.112;0.984;2023-08-24T04:37:02;12;12;
42410;PMS5003;28056;51.112;0.984;2023-08-24T04:39:29;14;14;
42410;PMS5003;28056;51.112;0.984;2023-08-24T04:41:56;15;15;
42410;PMS5003;28056;51.112;0.984;2023-08-24T04:44:24;12;12;
42410;PMS5003;28056;51.112;0.984;2023-08-24T04:46:54;14;13;
42410;PMS5003;28056;51.112;0.984;2023-08-24T04:49:22;13;13;
42410;PMS5003;28056;51.112;0.984;2023-08-24T04:51:49;20;18;
42410;PMS5003;28056;51.112;0.984;2023-08-24T04:54:17;14;14;
42410;PMS5003;28056;51.112;0.984;2023-08-24T04:56:44;12;12;
42410;PMS5003;28056;51.112;0.984;2023-08-24T04:59:12;11;11;
42410;PMS5003;28056;51.112;0.984;2023-08-24T05:01:40;10;10;
42410;PMS5003;28056;51.112;0.984;2023-08-24T05:04:07;12;11;
42410;PMS5003;28056;51.112;0.984;2023-08-24T05:06:35;10;10;
42410;PMS5003;28056;51.112;0.984;2023-08-24T05:09:02;12;12;
42410;PMS5003;28056;51.112;0.984;2023-08-24T05:11:29;14;12;
42410;PMS5003;28056;51.112;0.984;2023-08-24T05:13:56;14;13;
42410;PMS5003;28056;51.112;0.984;2023-08-24T05:16:24;13;13;
42410;PMS5003;28056;51.112;0.984;2023-08-24T05:18:51;17;15;
42410;PMS5003;28056;51.112;0.984;2023-08-24T05:21:19;14;13;
42410;PMS5003;28056;51.112;0.984;2023-08-24T05:23:48;14;13;
42410;PMS5003;28056;51.112;0.984;2023-08-24T05:26:16;15;13;
42410;PMS5003;28056;51.112;0.984;2023-08-24T05:28:43;12;12;
42410;PMS5003;28056;51.112;0.984;2023-08-24T05:31:11;10;10;
42410;PMS5003;28056;51.112;0.984;2023-08-24T05:33:38;13;10;
42410;PMS5003;28056;51.112;0.984;2023-08-24T05:36:06;14;14;
42410;PMS5003;28056;51.112;0.984;2023-08-24T05:38:33;13;11;
42410;PMS5003;28056;51.112;0.984;2023-08-24T05:41:01;13;12;
42410;PMS5003;28056;51.112;0.984;2023-08-24T05:43:29;15;14;
42410;PMS5003;28056;51.112;0.984;2023-08-24T05:45:59;14;14;
42410;PMS5003;28056;51.112;0.984;2023-08-24T05:48:27;15;14;
42410;PMS5003;28056;51.112;0.984;2023-08-24T05:50:54;13;10;
42410;PMS5003;28056;51.112;0.984;2023-08-24T05:53:22;11;9;
42410;PMS5003;28056;51.112;0.984;2023-08-24T05:55:51;14;12;
42410;PMS5003;28056;51.112;0.984;2023-08-24T05:58:23;13;13;
42410;PMS5003;28056;51.112;0.984;2023-08-24T06:00:55;14;14;
42410;PMS5003;28056;51.112;0.984;2023-08-24T06:03:24;13;10;
42410;PMS5003;28056;51.112;0.984;2023-08-24T06:05:52;10;10;
42410;PMS5003;28056;51.112;0.984;2023-08-24T06:08:19;12;12;
42410;PMS5003;28056;51.112;0.984;2023-08-24T06:10:48;13;13;
42410;PMS5003;28056;51.112;0.984;2023-08-24T06:13:16;14;12;
42410;PMS5003;28056;51.112;0.984;2023-08-24T06:15:43;13;13;
42410;PMS5003;28056;51.112;0.984;2023-08-24T06:18:11;13;13;
42410;PMS5003;28056;51.112;0.984;2023-08-24T06:20:39;13;13;
42410;PMS5003;28056;51.112;0.984;2023-08-24T06:23:07;15;14;
42410;PMS5003;28056;51.112;0.984;2023-08-24T06:25:35;13;13;
42410;PMS5003;28056;51.112;0.984;2023-08-24T06:28:02;18;15;
42410;PMS5003;28056;51.112;0.984;2023-08-24T06:30:30;16;14;
42410;PMS5003;28056;51.112;0.984;2023-08-24T06:32:58;12;12;
42410;PMS5003;28056;51.112;0.984;2023-08-24T06:35:30;13;12;
42410;PMS5003;28056;51.112;0.984;2023-08-24T06:37:58;15;15;
42410;PMS5003;28056;51.112;0.984;2023-08-24T06:40:25;16;14;
42410;PMS5003;28056;51.112;0.984;2023-08-24T06:42:53;13;12;
42410;PMS5003;28056;51.112;0.984;2023-08-24T06:45:20;12;10;
42410;PMS5003;28056;51.112;0.984;2023-08-24T06:47:48;12;12;
42410;PMS5003;28056;51.112;0.984;2023-08-24T06:50:15;10;10;
42410;PMS5003;28056;51.112;0.984;2023-08-24T06:52:43;13;13;
42410;PMS5003;28056;51.112;0.984;2023-08-24T06:55:10;11;11;
42410;PMS5003;28056;51.112;0.984;2023-08-24T06:57:40;13;13;
42410;PMS5003;28056;51.112;0.984;2023-08-24T07:00:08;11;11;
42410;PMS5003;28056;51.112;0.984;2023-08-24T07:02:36;13;13;
42410;PMS5003;28056;51.112;0.984;2023-08-24T07:05:04;14;14;
42410;PMS5003;28056;51.112;0.984;2023-08-24T07:07:32;16;13;
42410;PMS5003;28056;51.112;0.984;2023-08-24T07:10:00;13;12;
42410;PMS5003;28056;51.112;0.984;2023-08-24T07:12:28;15;15;
42410;PMS5003;28056;51.112;0.984;2023-08-24T07:14:55;16;16;
42410;PMS5003;28056;51.112;0.984;2023-08-24T07:17:23;17;16;
42410;PMS5003;28056;51.112;0.984;2023-08-24T07:19:58;16;11;
42410;PMS5003;28056;51.112;0.984;2023-08-24T07:22:26;19;17;
42410;PMS5003;28056;51.112;0.984;2023-08-24T07:24:55;14;14;
42410;PMS5003;28056;51.112;0.984;2023-08-24T07:27:23;14;13;
42410;PMS5003;28056;51.112;0.984;2023-08-24T07:29:51;13;13;
42410;PMS5003;28056;51.112;0.984;2023-08-24T07:32:19;14;12;
42410;PMS5003;28056;51.112;0.984;2023-08-24T07:34:47;14;14;
42410;PMS5003;28056;51.112;0.984;2023-08-24T07:37:14;13;13;
42410;PMS5003;28056;51.112;0.984;2023-08-24T07:39:42;17;16;
42410;PMS5003;28056;51.112;0.984;2023-08-24T07:42:09;16;16;
42410;PMS5003;28056;51.112;0.984;2023-08-24T07:44:38;14;14;
42410;PMS5003;28056;51.112;0.984;2023-08-24T07:47:10;17;17;
42410;PMS5003;28056;51.112;0.984;2023-08-24T07:49:42;16;15;
42410;PMS5003;28056;51.112;0.984;2023-08-24T07:52:14;18;16;
42410;PMS5003;28056;51.112;0.984;2023-08-24T07:54:42;17;17;
42410;PMS5003;28056;51.112;0.984;2023-08-24T07:57:09;16;16;
42410;PMS5003;28056;51.112;0.984;2023-08-24T07:59:37;19;17;
42410;PMS5003;28056;51.112;0.984;2023-08-24T08:02:04;20;18;
42410;PMS5003;28056;51.112;0.984;2023-08-24T08:04:32;14;14;
42410;PMS5003;28056;51.112;0.984;2023-08-24T08:06:59;14;14;
42410;PMS5003;28056;51.112;0.984;2023-08-24T08:09:42;16;16;
42410;PMS5003;28056;51.112;0.984;2023-08-24T08:12:10;15;15;
42410;PMS5003;28056;51.112;0.984;2023-08-24T08:14:37;18;17;
42410;PMS5003;28056;51.112;0.984;2023-08-24T08:17:05;20;18;
42410;PMS5003;28056;51.112;0.984;2023-08-24T08:19:32;17;17;
42410;PMS5003;28056;51.112;0.984;2023-08-24T08:22:00;18;17;
42410;PMS5003;28056;51.112;0.984;2023-08-24T08:24:27;17;17;
42410;PMS5003;28056;51.112;0.984;2023-08-24T08:26:55;18;16;
42410;PMS5003;28056;51.112;0.984;2023-08-24T08:29:22;15;15;
42410;PMS5003;28056;51.112;0.984;2023-08-24T08:31:50;20;17;
42410;PMS5003;28056;51.112;0.984;2023-08-24T08:34:47;17;17;
42410;PMS5003;28056;51.112;0.984;2023-08-24T08:37:14;20;16;
42410;PMS5003;28056;51.112;0.984;2023-08-24T08:39:41;18;18;
42410;PMS5003;28056;51.112;0.984;2023-08-24T08:42:11;18;15;
42410;PMS5003;28056;51.112;0.984;2023-08-24T08:44:39;16;15;
42410;PMS5003;28056;51.112;0.984;2023-08-24T08:47:08;18;15;
42410;PMS5003;28056;51.112;0.984;2023-08-24T08:49:37;16;16;
42410;PMS5003;28056;51.112;0.984;2023-08-24T08:52:06;13;13;
42410;PMS5003;28056;51.112;0.984;2023-08-24T08:54:33;15;14;
42410;PMS5003;28056;51.112;0.984;2023-08-24T08:57:01;15;14;
42410;PMS5003;28056;51.112;0.984;2023-08-24T08:59:28;15;15;
42410;PMS5003;28056;51.112;0.984;2023-08-24T09:01:56;19;17;
42410;PMS5003;28056;51.112;0.984;2023-08-24T09:04:24;16;13;
42410;PMS5003;28056;51.112;0.984;2023-08-24T09:06:53;15;13;
42410;PMS5003;28056;51.112;0.984;2023-08-24T09:09:20;18;17;
42410;PMS5003;28056;51.112;0.984;2023-08-24T09:11:47;18;18;
42410;PMS5003;28056;51.112;0.984;2023-08-24T09:14:15;21;18;
42410;PMS5003;28056;51.112;0.984;2023-08-24T09:16:43;18;16;
42410;PMS5003;28056;51.112;0.984;2023-08-24T09:19:41;14;14;
42410;PMS5003;28056;51.112;0.984;2023-08-24T09:22:15;17;14;
42410;PMS5003;28056;51.112;0.984;2023-08-24T09:24:42;15;15;
42410;PMS5003;28056;51.112;0.984;2023-08-24T09:27:14;17;13;
42410;PMS5003;28056;51.112;0.984;2023-08-24T09:29:42;14;13;
42410;PMS5003;28056;51.112;0.984;2023-08-24T09:32:13;17;17;
42410;PMS5003;28056;51.112;0.984;2023-08-24T09:34:41;14;14;
42410;PMS5003;28056;51.112;0.984;2023-08-24T09:37:12;12;12;
42410;PMS5003;28056;51.112;0.984;2023-08-24T09:40:46;15;15;
42410;PMS5003;28056;51.112;0.984;2023-08-24T09:43:29;13;13;
42410;PMS5003;28056;51.112;0.984;2023-08-24T09:45:57;15;14;
42410;PMS5003;28056;51.112;0.984;2023-08-24T09:48:25;10;10;
42410;PMS5003;28056;51.112;0.984;2023-08-24T09:50:53;10;10;
42410;PMS5003;28056;51.112;0.984;2023-08-24T09:53:23;12;12;
42410;PMS5003;28056;51.112;0.984;2023-08-24T09:55:53;14;12;
42410;PMS5003;28056;51.112;0.984;2023-08-24T09:58:27;13;12;
42410;PMS5003;28056;51.112;0.984;2023-08-24T10:00:55;14;13;
42410;PMS5003;28056;51.112;0.984;2023-08-24T10:03:28;11;11;
42410;PMS5003;28056;51.112;0.984;2023-08-24T10:06:04;15;13;
42410;PMS5003;28056;51.112;0.984;2023-08-24T10:08:36;10;10;
42410;PMS5003;28056;51.112;0.984;2023-08-24T10:11:05;13;13;
42410;PMS5003;28056;51.112;0.984;2023-08-24T10:13:36;12;11;
42410;PMS5003;28056;51.112;0.984;2023-08-24T10:16:06;12;11;
42410;PMS5003;28056;51.112;0.984;2023-08-24T10:18:50;15;13;
42410;PMS5003;28056;51.112;0.984;2023-08-24T10:21:28;14;13;
42410;PMS5003;28056;51.112;0.984;2023-08-24T10:25:49;14;14;
42410;PMS5003;28056;51.112;0.984;2023-08-24T10:28:20;15;12;
42410;PMS5003;28056;51.112;0.984;2023-08-24T10:30:50;14;13;
42410;PMS5003;28056;51.112;0.984;2023-08-24T10:33:19;13;13;
42410;PMS5003;28056;51.112;0.984;2023-08-24T10:35:47;15;13;
42410;PMS5003;28056;51.112;0.984;2023-08-24T10:38:22;19;14;
42410;PMS5003;28056;51.112;0.984;2023-08-24T10:40:52;15;14;
42410;PMS5003;28056;51.112;0.984;2023-08-24T10:43:20;17;15;
42410;PMS5003;28056;51.112;0.984;2023-08-24T10:45:54;16;13;
42410;PMS5003;28056;51.112;0.984;2023-08-24T10:48:28;13;13;
42410;PMS5003;28056;51.112;0.984;2023-08-24T10:51:28;16;13;
42410;PMS5003;28056;51.112;0.984;2023-08-24T10:53:56;15;13;
42410;PMS5003;28056;51.112;0.984;2023-08-24T10:56:29;14;13;
42410;PMS5003;28056;51.112;0.984;2023-08-24T10:59:10;14;13;
42410;PMS5003;28056;51.112;0.984;2023-08-24T11:01:39;15;12;
42410;PMS5003;28056;51.112;0.984;2023-08-24T11:04:07;15;15;
42410;PMS5003;28056;51.112;0.984;2023-08-24T11:06:50;15;15;
42410;PMS5003;28056;51.112;0.984;2023-08-24T11:09:21;17;16;
42410;PMS5003;28056;51.112;0.984;2023-08-24T11:11:58;19;16;
42410;PMS5003;28056;51.112;0.984;2023-08-24T11:14:27;17;17;
42410;PMS5003;28056;51.112;0.984;2023-08-24T11:16:57;15;15;
42410;PMS5003;28056;51.112;0.984;2023-08-24T11:19:24;17;17;
42410;PMS5003;28056;51.112;0.984;2023-08-24T11:21:52;17;17;
42410;PMS5003;28056;51.112;0.984;2023-08-24T11:24:20;18;15;
42410;PMS5003;28056;51.112;0.984;2023-08-24T11:26:48;15;15;
42410;PMS5003;28056;51.112;0.984;2023-08-24T11:29:15;15;15;
42410;PMS5003;28056;51.112;0.984;2023-08-24T11:31:46;19;16;
42410;PMS5003;28056;51.112;0.984;2023-08-24T11:34:14;16;16;
42410;PMS5003;28056;51.112;0.984;2023-08-24T11:36:42;14;14;
42410;PMS5003;28056;51.112;0.984;2023-08-24T11:39:15;13;13;
42410;PMS5003;28056;51.112;0.984;2023-08-24T11:41:44;21;15;
42410;PMS5003;28056;51.112;0.984;2023-08-24T11:44:11;14;13;
42410;PMS5003;28056;51.112;0.984;2023-08-24T11:46:38;19;16;
42410;PMS5003;28056;51.112;0.984;2023-08-24T11:49:07;14;14;
42410;PMS5003;28056;51.112;0.984;2023-08-24T11:51:34;14;14;
42410;PMS5003;28056;51.112;0.984;2023-08-24T11:54:03;15;11;
42410;PMS5003;28056;51.112;0.984;2023-08-24T11:56:30;13;12;
42410;PMS5003;28056;51.112;0.984;2023-08-24T11:58:58;15;15;
42410;PMS5003;28056;51.112;0.984;2023-08-24T12:01:26;15;13;
42410;PMS5003;28056;51.112;0.984;2023-08-24T12:03:53;16;14;
42410;PMS5003;28056;51.112;0.984;2023-08-24T12:06:20;16;16;
42410;PMS5003;28056;51.112;0.984;2023-08-24T12:08:47;18;15;
42410;PMS5003;28056;51.112;0.984;2023-08-24T12:11:16;17;16;
42410;PMS5003;28056;51.112;0.984;2023-08-24T12:13:45;16;13;
42410;PMS5003;28056;51.112;0.984;2023-08-24T12:16:12;15;14;
42410;PMS5003;28056;51.112;0.984;2023-08-24T12:18:50;15;15;
42410;PMS5003;28056;51.112;0.984;2023-08-24T12:21:19;13;13;
42410;PMS5003;28056;51.112;0.984;2023-08-24T12:24:03;19;15;
42410;PMS5003;28056;51.112;0.984;2023-08-24T12:26:32;15;14;
42410;PMS5003;28056;51.112;0.984;2023-08-24T12:29:00;18;14;
42410;PMS5003;28056;51.112;0.984;2023-08-24T12:31:28;17;16;
42410;PMS5003;28056;51.112;0.984;2023-08-24T12:33:59;14;14;
42410;PMS5003;28056;51.112;0.984;2023-08-24T12:36:27;15;13;
42410;PMS5003;28056;51.112;0.984;2023-08-24T12:38:57;13;12;
42410;PMS5003;28056;51.112;0.984;2023-08-24T12:41:27;15;15;
42410;PMS5003;28056;51.112;0.984;2023-08-24T12:43:54;14;12;
42410;PMS5003;28056;51.112;0.984;2023-08-24T12:46:21;13;11;
42410;PMS5003;28056;51.112;0.984;2023-08-24T12:48:50;14;14;
42410;PMS5003;28056;51.112;0.984;2023-08-24T12:51:18;10;10;
42410;PMS5003;28056;51.112;0.984;2023-08-24T12:53:45;14;11;
42410;PMS5003;28056;51.112;0.984;2023-08-24T12:56:13;14;13;
42410;PMS5003;28056;51.112;0.984;2023-08-24T12:58:40;14;14;
42410;PMS5003;28056;51.112;0.984;2023-08-24T13:01:13;17;13;
42410;PMS5003;28056;51.112;0.984;2023-08-24T13:03:40;13;13;
42410;PMS5003;28056;51.112;0.984;2023-08-24T13:06:07;13;12;
42410;PMS5003;28056;51.112;0.984;2023-08-24T13:08:35;17;15;
42410;PMS5003;28056;51.112;0.984;2023-08-24T13:11:02;16;13;
42410;PMS5003;28056;51.112;0.984;2023-08-24T13:13:30;14;14;
42410;PMS5003;28056;51.112;0.984;2023-08-24T13:15:57;15;13;
42410;PMS5003;28056;51.112;0.984;2023-08-24T13:18:25;15;14;
42410;PMS5003;28056;51.112;0.984;2023-08-24T13:20:52;17;15;
42410;PMS5003;28056;51.112;0.984;2023-08-24T13:23:19;18;17;
42410;PMS5003;28056;51.112;0.984;2023-08-24T13:25:47;15;12;
42410;PMS5003;28056;51.112;0.984;2023-08-24T13:28:14;16;13;
42410;PMS5003;28056;51.112;0.984;2023-08-24T13:30:42;18;16;
42410;PMS5003;28056;51.112;0.984;2023-08-24T13:33:09;16;15;
42410;PMS5003;28056;51.112;0.984;2023-08-24T13:35:37;15;15;
42410;PMS5003;28056;51.112;0.984;2023-08-24T13:38:04;19;16;
42410;PMS5003;28056;51.112;0.984;2023-08-24T13:40:32;14;12;
42410;PMS5003;28056;51.112;0.984;2023-08-24T13:42:59;16;13;
42410;PMS5003;28056;51.112;0.984;2023-08-24T13:45:26;16;15;
42410;PMS5003;28056;51.112;0.984;2023-08-24T13:47:54;15;15;
42410;PMS5003;28056;51.112;0.984;2023-08-24T13:50:37;19;17;
42410;PMS5003;28056;51.112;0.984;2023-08-24T13:53:04;17;15;
42410;PMS5003;28056;51.112;0.984;2023-08-24T13:55:32;17;17;
42410;PMS5003;28056;51.112;0.984;2023-08-24T13:57:59;15;15;
42410;PMS5003;28056;51.112;0.984;2023-08-24T14:00:27;19;19;
42410;PMS5003;28056;51.112;0.984;2023-08-24T14:02:54;19;18;
42410;PMS5003;28056;51.112;0.984;2023-08-24T14:05:21;17;16;
42410;PMS5003;28056;51.112;0.984;2023-08-24T14:07:49;16;16;
42410;PMS5003;28056;51.112;0.984;2023-08-24T14:10:17;18;17;
42410;PMS5003;28056;51.112;0.984;2023-08-24T14:12:45;19;17;
42410;PMS5003;28056;51.112;0.984;2023-08-24T14:15:13;17;16;
42410;PMS5003;28056;51.112;0.984;2023-08-24T14:17:40;20;20;
42410;PMS5003;28056;51.112;0.984;2023-08-24T14:20:09;20;20;
42410;PMS5003;28056;51.112;0.984;2023-08-24T14:22:37;19;19;
42410;PMS5003;28056;51.112;0.984;2023-08-24T14:25:04;19;18;
42410;PMS5003;28056;51.112;0.984;2023-08-24T14:27:32;16;16;
42410;PMS5003;28056;51.112;0.984;2023-08-24T14:30:00;17;17;
42410;PMS5003;28056;51.112;0.984;2023-08-24T14:32:27;16;16;
42410;PMS5003;28056;51.112;0.984;2023-08-24T14:34:55;20;18;
42410;PMS5003;28056;51.112;0.984;2023-08-24T14:37:24;22;21;
42410;PMS5003;28056;51.112;0.984;2023-08-24T14:39:52;23;21;
42410;PMS5003;28056;51.112;0.984;2023-08-24T14:42:19;15;15;
42410;PMS5003;28056;51.112;0.984;2023-08-24T14:44:46;17;16;
42410;PMS5003;28056;51.112;0.984;2023-08-24T14:47:13;21;21;
42410;PMS5003;28056;51.112;0.984;2023-08-24T14:49:41;15;15;
42410;PMS5003;28056;51.112;0.984;2023-08-24T14:52:08;15;15;
42410;PMS5003;28056;51.112;0.984;2023-08-24T14:54:36;18;18;
42410;PMS5003;28056;51.112;0.984;2023-08-24T14:57:03;22;21;
42410;PMS5003;28056;51.112;0.984;2023-08-24T14:59:30;19;18;
42410;PMS5003;28056;51.112;0.984;2023-08-24T15:01:58;20;18;
42410;PMS5003;28056;51.112;0.984;2023-08-24T15:04:25;18;18;
42410;PMS5003;28056;51.112;0.984;2023-08-24T15:06:52;20;18;
42410;PMS5003;28056;51.112;0.984;2023-08-24T15:09:20;20;18;
42410;PMS5003;28056;51.112;0.984;2023-08-24T15:11:48;20;20;
42410;PMS5003;28056;51.112;0.984;2023-08-24T15:14:15;21;21;
42410;PMS5003;28056;51.112;0.984;2023-08-24T15:16:43;22;21;
42410;PMS5003;28056;51.112;0.984;2023-08-24T15:19:11;20;20;
42410;PMS5003;28056;51.112;0.984;2023-08-24T15:21:38;22;21;
42410;PMS5003;28056;51.112;0.984;2023-08-24T15:24:05;23;19;
42410;PMS5003;28056;51.112;0.984;2023-08-24T15:26:34;19;19;
42410;PMS5003;28056;51.112;0.984;2023-08-24T15:29:10;23;22;
42410;PMS5003;28056;51.112;0.984;2023-08-24T15:31:40;25;23;
42410;PMS5003;28056;51.112;0.984;2023-08-24T15:34:07;20;20;
42410;PMS5003;28056;51.112;0.984;2023-08-24T15:36:36;21;21;
42410;PMS5003;28056;51.112;0.984;2023-08-24T15:39:03;21;21;
42410;PMS5003;28056;51.112;0.984;2023-08-24T15:41:31;21;21;
42410;PMS5003;28056;51.112;0.984;2023-08-24T15:43:58;25;24;
42410;PMS5003;28056;51.112;0.984;2023-08-24T15:46:26;23;22;
42410;PMS5003;28056;51.112;0.984;2023-08-24T15:48:54;22;19;
42410;PMS5003;28056;51.112;0.984;2023-08-24T15:51:21;19;18;
42410;PMS5003;28056;51.112;0.984;2023-08-24T15:53:49;20;18;
42410;PMS5003;28056;51.112;0.984;2023-08-24T15:56:17;19;16;
42410;PMS5003;28056;51.112;0.984;2023-08-24T15:58:44;20;20;
42410;PMS5003;28056;51.112;0.984;2023-08-24T16:01:12;21;20;
42410;PMS5003;28056;51.112;0.984;2023-08-24T16:03:39;19;18;
42410;PMS5003;28056;51.112;0.984;2023-08-24T16:06:06;22;19;
42410;PMS5003;28056;51.112;0.984;2023-08-24T16:08:34;20;20;
42410;PMS5003;28056;51.112;0.984;2023-08-24T16:11:01;22;22;
42410;PMS5003;28056;51.112;0.984;2023-08-24T16:13:29;26;22;
42410;PMS5003;28056;51.112;0.984;2023-08-24T16:15:56;21;21;
42410;PMS5003;28056;51.112;0.984;2023-08-24T16:18:24;19;19;
42410;PMS5003;28056;51.112;0.984;2023-08-24T16:20:52;24;24;
42410;PMS5003;28056;51.112;0.984;2023-08-24T16:23:20;23;22;
42410;PMS5003;28056;51.112;0.984;2023-08-24T16:25:48;20;18;
42410;PMS5003;28056;51.112;0.984;2023-08-24T16:28:16;19;19;
42410;PMS5003;28056;51.112;0.984;2023-08-24T16:30:46;17;17;
42410;PMS5003;28056;51.112;0.984;2023-08-24T16:33:13;24;23;
42410;PMS5003;28056;51.112;0.984;2023-08-24T16:35:41;20;20;